Time,TemperatureF,DewpointF,PressureIn,WindDirection,WindDirectionDegrees,WindSpeedMPH,WindSpeedGustMPH,Humidity,HourlyPrecipIn,Conditions,Clouds,dailyrainin,SoftwareType,DateUTC
2013-05-20 00:12:00,69.1,67.3,30.01,SSE,157,0.0,-999.0,94,-99.99,,,0.00,Acu-Link.com,2013-05-20 04:12:00,
2013-05-20 00:27:00,69.1,67.3,30.01,SSW,202,1.7,-999.0,94,-99.99,,,0.00,Acu-Link.com,2013-05-20 04:27:00,
2013-05-20 00:42:00,69.3,67.5,30.00,SSW,202,5.3,-999.0,94,-99.99,,,0.00,Acu-Link.com,2013-05-20 04:42:00,
2013-05-20 00:58:00,69.1,67.3,30.00,SSE,157,0.0,-999.0,94,-99.99,,,0.00,Acu-Link.com,2013-05-20 04:58:00,
2013-05-20 01:13:00,68.7,66.9,30.00,South,180,0.0,-999.0,94,-99.99,,,0.00,Acu-Link.com,2013-05-20 05:13:00,
2013-05-20 01:29:00,68.5,67.0,29.99,South,180,1.7,-999.0,95,-99.99,,,0.00,Acu-Link.com,2013-05-20 05:29:00,
2013-05-20 01:44:00,68.5,67.0,29.99,South,180,0.0,-999.0,95,-99.99,,,0.00,Acu-Link.com,2013-05-20 05:44:00,
2013-05-20 01:59:00,68.5,67.0,30.00,South,180,3.7,-999.0,95,-99.99,,,0.00,Acu-Link.com,2013-05-20 05:59:00,
2013-05-20 02:14:00,68.7,67.2,29.99,South,180,0.0,-999.0,95,-99.99,,,0.00,Acu-Link.com,2013-05-20 06:14:00,
2013-05-20 02:30:00,68.7,67.2,29.98,WSW,247,0.0,-999.0,95,-99.99,,,0.00,Acu-Link.com,2013-05-20 06:30:00,
2013-05-20 02:45:00,68.5,67.0,29.98,SSE,157,0.0,-999.0,95,-99.99,,,0.00,Acu-Link.com,2013-05-20 06:45:00,
2013-05-20 03:00:00,68.4,66.9,29.98,East,90,0.0,-999.0,95,-99.99,,,0.00,Acu-Link.com,2013-05-20 07:00:00,
2013-05-20 03:15:00,68.2,66.7,29.97,NNW,337,0.0,-999.0,95,-99.99,,,0.00,Acu-Link.com,2013-05-20 07:15:00,
2013-05-20 03:31:00,68.2,66.7,29.97,NNE,22,0.0,-999.0,95,-99.99,,,0.00,Acu-Link.com,2013-05-20 07:31:00,
2013-05-20 03:46:00,68.2,66.7,29.97,SSE,157,0.0,-999.0,95,-99.99,,,0.00,Acu-Link.com,2013-05-20 07:46:00,
2013-05-20 04:01:00,68.4,67.2,29.98,SE,135,0.0,-999.0,96,-99.99,,,0.00,Acu-Link.com,2013-05-20 08:01:00,
2013-05-20 04:17:00,68.4,67.2,29.98,SE,135,3.2,-999.0,96,-99.99,,,0.00,Acu-Link.com,2013-05-20 08:17:00,
2013-05-20 04:32:00,68.4,67.2,29.98,ESE,112,0.0,-999.0,96,-99.99,,,0.00,Acu-Link.com,2013-05-20 08:32:00,
2013-05-20 04:47:00,68.4,67.2,29.98,SSW,202,0.0,-999.0,96,-99.99,,,0.01,Acu-Link.com,2013-05-20 08:47:00,
2013-05-20 05:02:00,68.0,66.8,29.98,ESE,112,3.2,-999.0,96,-99.99,,,0.08,Acu-Link.com,2013-05-20 09:02:00,
2013-05-20 05:17:00,68.0,66.8,29.98,SSE,157,3.2,-999.0,96,-99.99,,,0.15,Acu-Link.com,2013-05-20 09:17:00,
2013-05-20 05:32:00,68.0,66.8,29.98,South,180,2.7,-999.0,96,-99.99,,,0.15,Acu-Link.com,2013-05-20 09:32:00,
2013-05-20 05:48:00,68.0,66.8,29.99,SSE,157,4.7,-999.0,96,-99.99,,,0.21,Acu-Link.com,2013-05-20 09:48:00,
2013-05-20 06:03:00,67.8,66.9,29.99,SSE,157,2.7,-999.0,97,-99.99,,,0.79,Acu-Link.com,2013-05-20 10:03:00,
2013-05-20 06:18:00,67.6,66.7,29.99,SSE,157,0.0,-999.0,97,-99.99,,,0.84,Acu-Link.com,2013-05-20 10:18:00,
2013-05-20 06:33:00,67.8,66.9,29.99,South,180,2.2,-999.0,97,-99.99,,,0.92,Acu-Link.com,2013-05-20 10:33:00,
2013-05-20 06:48:00,67.8,67.2,30.00,SSW,202,2.7,-999.0,98,-99.99,,,0.99,Acu-Link.com,2013-05-20 10:48:00,
2013-05-20 07:04:00,68.2,67.6,30.01,SW,225,2.2,-999.0,98,-99.99,,,1.05,Acu-Link.com,2013-05-20 11:04:00,
2013-05-20 07:20:00,68.2,67.6,30.01,SSW,202,0.0,-999.0,98,-99.99,,,1.06,Acu-Link.com,2013-05-20 11:20:00,
2013-05-20 07:35:00,68.4,67.8,30.01,ESE,112,0.0,-999.0,98,-99.99,,,1.06,Acu-Link.com,2013-05-20 11:35:00,
2013-05-20 07:50:00,68.5,67.9,30.02,SE,135,0.0,-999.0,98,-99.99,,,1.06,Acu-Link.com,2013-05-20 11:50:00,
2013-05-20 08:05:00,68.7,68.1,30.02,South,180,0.0,-999.0,98,-99.99,,,1.06,Acu-Link.com,2013-05-20 12:05:00,
2013-05-20 08:21:00,69.4,68.8,30.03,South,180,0.0,-999.0,98,-99.99,,,1.06,Acu-Link.com,2013-05-20 12:21:00,
2013-05-20 08:36:00,69.4,68.8,30.03,South,180,2.7,-999.0,98,-99.99,,,1.06,Acu-Link.com,2013-05-20 12:36:00,
2013-05-20 08:51:00,69.8,69.2,30.03,SSW,202,2.7,-999.0,98,-99.99,,,1.06,Acu-Link.com,2013-05-20 12:51:00,
2013-05-20 09:07:00,70.3,69.7,30.03,South,180,2.2,-999.0,98,-99.99,,,1.06,Acu-Link.com,2013-05-20 13:07:00,
2013-05-20 09:22:00,71.4,70.2,30.03,South,180,4.7,-999.0,96,-99.99,,,1.06,Acu-Link.com,2013-05-20 13:22:00,
2013-05-20 09:37:00,71.6,69.8,30.03,SSW,202,2.7,-999.0,94,-99.99,,,1.06,Acu-Link.com,2013-05-20 13:37:00,
2013-05-20 09:53:00,73.0,70.9,30.02,South,180,3.7,-999.0,93,-99.99,,,1.06,Acu-Link.com,2013-05-20 13:53:00,
2013-05-20 10:08:00,72.9,70.4,30.02,South,180,2.7,-999.0,92,-99.99,,,1.06,Acu-Link.com,2013-05-20 14:08:00,
2013-05-20 10:23:00,73.0,70.5,30.02,SSW,202,2.7,-999.0,92,-99.99,,,1.06,Acu-Link.com,2013-05-20 14:23:00,
2013-05-20 10:38:00,73.6,70.8,30.02,SSW,202,4.7,-999.0,91,-99.99,,,1.06,Acu-Link.com,2013-05-20 14:38:00,
2013-05-20 10:53:00,73.9,69.8,30.02,SSW,202,2.7,-999.0,87,-99.99,,,1.06,Acu-Link.com,2013-05-20 14:53:00,
2013-05-20 11:09:00,75.2,70.0,30.01,NW,315,0.0,-999.0,84,-99.99,,,1.06,Acu-Link.com,2013-05-20 15:09:00,
2013-05-20 11:24:00,75.7,70.2,30.02,NNW,337,5.3,-999.0,83,-99.99,,,1.06,Acu-Link.com,2013-05-20 15:24:00,
2013-05-20 11:39:00,77.7,70.7,30.02,SW,225,4.7,-999.0,79,-99.99,,,1.06,Acu-Link.com,2013-05-20 15:39:00,
2013-05-20 11:55:00,78.6,70.8,30.02,NW,315,2.7,-999.0,77,-99.99,,,1.06,Acu-Link.com,2013-05-20 15:55:00,
2013-05-20 12:10:00,79.9,71.6,30.01,WSW,247,1.7,-999.0,76,-99.99,,,1.06,Acu-Link.com,2013-05-20 16:10:00,
2013-05-20 12:25:00,81.5,70.7,30.00,SSW,202,1.7,-999.0,70,-99.99,,,1.06,Acu-Link.com,2013-05-20 16:25:00,
2013-05-20 12:40:00,82.6,70.5,29.99,SSW,202,6.3,-999.0,67,-99.99,,,1.06,Acu-Link.com,2013-05-20 16:40:00,
2013-05-20 12:55:00,80.1,69.8,29.99,SSW,202,3.7,-999.0,71,-99.99,,,1.06,Acu-Link.com,2013-05-20 16:55:00,
2013-05-20 13:11:00,78.1,70.7,29.99,South,180,2.7,-999.0,78,-99.99,,,1.06,Acu-Link.com,2013-05-20 17:11:00,
2013-05-20 13:26:00,80.1,69.4,29.98,South,180,3.7,-999.0,70,-99.99,,,1.06,Acu-Link.com,2013-05-20 17:26:00,
2013-05-20 13:41:00,78.8,70.2,29.98,SSE,157,7.3,-999.0,75,-99.99,,,1.06,Acu-Link.com,2013-05-20 17:41:00,
2013-05-20 13:57:00,72.3,68.9,29.99,South,180,4.2,-999.0,89,-99.99,,,1.13,Acu-Link.com,2013-05-20 17:57:00,
2013-05-20 14:12:00,71.2,68.4,29.98,ESE,112,9.4,-999.0,91,-99.99,,,1.50,Acu-Link.com,2013-05-20 18:12:00,
2013-05-20 14:27:00,70.9,68.8,29.98,South,180,3.2,-999.0,93,-99.99,,,1.75,Acu-Link.com,2013-05-20 18:27:00,
2013-05-20 14:43:00,70.9,68.8,29.98,SSE,157,4.7,-999.0,93,-99.99,,,1.81,Acu-Link.com,2013-05-20 18:43:00,
2013-05-20 14:58:00,70.7,68.9,29.99,SSW,202,8.3,-999.0,94,-99.99,,,1.96,Acu-Link.com,2013-05-20 18:58:00,
2013-05-20 15:13:00,69.8,68.3,29.97,SSW,202,6.8,-999.0,95,-99.99,,,2.40,Acu-Link.com,2013-05-20 19:13:00,
2013-05-20 15:28:00,70.0,68.5,29.97,SE,135,4.7,-999.0,95,-99.99,,,2.76,Acu-Link.com,2013-05-20 19:28:00,
2013-05-20 15:43:00,70.2,68.7,29.97,SSW,202,4.2,-999.0,95,-99.99,,,2.96,Acu-Link.com,2013-05-20 19:43:00,
2013-05-20 15:59:00,70.3,68.8,29.98,SW,225,0.0,-999.0,95,-99.99,,,2.96,Acu-Link.com,2013-05-20 19:59:00,
2013-05-20 16:14:00,70.2,68.7,29.98,SSW,202,4.2,-999.0,95,-99.99,,,3.08,Acu-Link.com,2013-05-20 20:14:00,
2013-05-20 16:30:00,70.5,69.3,29.96,SSE,157,3.7,-999.0,96,-99.99,,,3.16,Acu-Link.com,2013-05-20 20:30:00,
2013-05-20 16:45:00,71.4,70.2,29.96,South,180,3.7,-999.0,96,-99.99,,,3.17,Acu-Link.com,2013-05-20 20:45:00,
2013-05-20 17:00:00,72.0,70.5,29.95,South,180,4.7,-999.0,95,-99.99,,,3.17,Acu-Link.com,2013-05-20 21:00:00,
2013-05-20 17:16:00,72.5,70.7,29.95,SSE,157,2.2,-999.0,94,-99.99,,,3.17,Acu-Link.com,2013-05-20 21:16:00,
2013-05-20 17:31:00,72.7,70.9,29.95,South,180,2.7,-999.0,94,-99.99,,,3.17,Acu-Link.com,2013-05-20 21:31:00,
2013-05-20 17:46:00,72.3,70.5,29.94,SSW,202,6.3,-999.0,94,-99.99,,,3.17,Acu-Link.com,2013-05-20 21:46:00,
2013-05-20 18:02:00,72.7,70.2,29.94,South,180,2.2,-999.0,92,-99.99,,,3.17,Acu-Link.com,2013-05-20 22:02:00,
2013-05-20 18:17:00,73.8,71.3,29.93,South,180,1.7,-999.0,92,-99.99,,,3.17,Acu-Link.com,2013-05-20 22:17:00,
2013-05-20 18:32:00,74.5,71.4,29.93,South,180,3.2,-999.0,90,-99.99,,,3.17,Acu-Link.com,2013-05-20 22:32:00,
2013-05-20 18:48:00,73.2,70.4,29.93,SSW,202,3.2,-999.0,91,-99.99,,,3.17,Acu-Link.com,2013-05-20 22:48:00,
2013-05-20 19:03:00,73.6,70.8,29.93,South,180,0.0,-999.0,91,-99.99,,,3.17,Acu-Link.com,2013-05-20 23:03:00,
2013-05-20 19:19:00,73.6,70.8,29.94,SSW,202,0.0,-999.0,91,-99.99,,,3.17,Acu-Link.com,2013-05-20 23:19:00,
2013-05-20 19:34:00,72.9,70.4,29.94,SSW,202,2.2,-999.0,92,-99.99,,,3.17,Acu-Link.com,2013-05-20 23:34:00,
2013-05-20 19:49:00,72.7,70.6,29.94,South,180,0.0,-999.0,93,-99.99,,,3.17,Acu-Link.com,2013-05-20 23:49:00,
2013-05-20 20:05:00,72.0,69.9,29.93,SSW,202,3.2,-999.0,93,-99.99,,,3.17,Acu-Link.com,2013-05-21 00:05:00,
2013-05-20 20:20:00,71.4,69.3,29.94,ESE,112,3.7,-999.0,93,-99.99,,,3.17,Acu-Link.com,2013-05-21 00:20:00,
2013-05-20 20:35:00,71.1,69.3,29.95,SSE,157,1.7,-999.0,94,-99.99,,,3.17,Acu-Link.com,2013-05-21 00:35:00,
2013-05-20 20:50:00,71.1,69.3,29.96,SSE,157,0.0,-999.0,94,-99.99,,,3.17,Acu-Link.com,2013-05-21 00:50:00,
2013-05-20 21:06:00,70.9,69.1,29.96,SE,135,0.0,-999.0,94,-99.99,,,3.17,Acu-Link.com,2013-05-21 01:06:00,
2013-05-20 21:21:00,70.7,69.2,29.96,SE,135,0.0,-999.0,95,-99.99,,,3.17,Acu-Link.com,2013-05-21 01:21:00,
2013-05-20 21:36:00,70.5,68.7,29.97,ESE,112,0.0,-999.0,94,-99.99,,,3.17,Acu-Link.com,2013-05-21 01:36:00,
2013-05-20 21:51:00,70.2,68.7,29.97,South,180,2.2,-999.0,95,-99.99,,,3.17,Acu-Link.com,2013-05-21 01:51:00,
2013-05-20 22:06:00,70.0,68.5,29.97,SSE,157,2.2,-999.0,95,-99.99,,,3.17,Acu-Link.com,2013-05-21 02:06:00,
2013-05-20 22:22:00,69.6,68.1,29.97,SE,135,0.0,-999.0,95,-99.99,,,3.17,Acu-Link.com,2013-05-21 02:22:00,
2013-05-20 22:37:00,69.3,67.8,29.96,SSW,202,0.0,-999.0,95,-99.99,,,3.17,Acu-Link.com,2013-05-21 02:37:00,
2013-05-20 22:52:00,69.1,67.6,29.96,SSE,157,1.7,-999.0,95,-99.99,,,3.17,Acu-Link.com,2013-05-21 02:52:00,
2013-05-20 23:08:00,68.7,67.2,29.96,ESE,112,0.0,-999.0,95,-99.99,,,3.17,Acu-Link.com,2013-05-21 03:08:00,
2013-05-20 23:23:00,68.4,67.2,29.95,SSE,157,0.0,-999.0,96,-99.99,,,3.17,Acu-Link.com,2013-05-21 03:23:00,
2013-05-20 23:38:00,68.5,67.3,29.95,SE,135,1.7,-999.0,96,-99.99,,,3.17,Acu-Link.com,2013-05-21 03:38:00,
2013-05-20 23:54:00,68.7,67.5,29.95,SSW,202,0.0,-999.0,96,-99.99,,,3.17,Acu-Link.com,2013-05-21 03:54:00,